sensor_id;sensor_type;location;lat;lon;timestamp;P1;durP1;ratioP1;P2;durP2;ratioP2
22648;SDS011;11491;41.942;24.220;2023-01-24T00:02:24;15.95;;;3.78;;
22648;SDS011;11491;41.942;24.220;2023-01-24T00:04:50;16.88;;;5.47;;
22648;SDS011;11491;41.942;24.220;2023-01-24T00:07:17;15.02;;;4.35;;
22648;SDS011;11491;41.942;24.220;2023-01-24T00:09:44;26.67;;;3.83;;
22648;SDS011;11491;41.942;24.220;2023-01-24T00:12:11;41.60;;;4.72;;
22648;SDS011;11491;41.942;24.220;2023-01-24T00:14:39;23.10;;;3.95;;
22648;SDS011;11491;41.942;24.220;2023-01-24T00:17:05;21.27;;;5.57;;
22648;SDS011;11491;41.942;24.220;2023-01-24T00:19:33;14.77;;;2.95;;
22648;SDS011;11491;41.942;24.220;2023-01-24T00:22:00;9.15;;;3.22;;
22648;SDS011;11491;41.942;24.220;2023-01-24T00:24:27;10.27;;;3.15;;
22648;SDS011;11491;41.942;24.220;2023-01-24T00:26:54;15.50;;;4.78;;
22648;SDS011;11491;41.942;24.220;2023-01-24T00:29:21;13.65;;;4.60;;
22648;SDS011;11491;41.942;24.220;2023-01-24T00:31:49;13.10;;;3.45;;
22648;SDS011;11491;41.942;24.220;2023-01-24T00:34:16;16.23;;;3.45;;
22648;SDS011;11491;41.942;24.220;2023-01-24T00:36:43;22.65;;;4.00;;
22648;SDS011;11491;41.942;24.220;2023-01-24T00:39:10;10.30;;;3.17;;
22648;SDS011;11491;41.942;24.220;2023-01-24T00:41:36;16.58;;;3.65;;
22648;SDS011;11491;41.942;24.220;2023-01-24T00:44:03;8.57;;;3.10;;
22648;SDS011;11491;41.942;24.220;2023-01-24T00:46:30;26.30;;;3.60;;
22648;SDS011;11491;41.942;24.220;2023-01-24T00:48:58;35.33;;;4.45;;
22648;SDS011;11491;41.942;24.220;2023-01-24T00:51:25;16.00;;;3.33;;
22648;SDS011;11491;41.942;24.220;2023-01-24T00:53:52;13.68;;;3.75;;
22648;SDS011;11491;41.942;24.220;2023-01-24T00:56:19;9.63;;;4.03;;
22648;SDS011;11491;41.942;24.220;2023-01-24T00:58:46;5.93;;;3.03;;
22648;SDS011;11491;41.942;24.220;2023-01-24T01:01:12;4.60;;;2.40;;
22648;SDS011;11491;41.942;24.220;2023-01-24T01:03:39;5.00;;;2.40;;
22648;SDS011;11491;41.942;24.220;2023-01-24T01:06:09;6.60;;;2.25;;
22648;SDS011;11491;41.942;24.220;2023-01-24T01:08:39;4.78;;;2.22;;
22648;SDS011;11491;41.942;24.220;2023-01-24T01:11:06;4.05;;;2.10;;
22648;SDS011;11491;41.942;24.220;2023-01-24T01:13:33;7.72;;;2.70;;
22648;SDS011;11491;41.942;24.220;2023-01-24T01:16:00;11.90;;;1.85;;
22648;SDS011;11491;41.942;24.220;2023-01-24T01:18:28;4.53;;;1.83;;
22648;SDS011;11491;41.942;24.220;2023-01-24T01:20:54;9.48;;;1.98;;
22648;SDS011;11491;41.942;24.220;2023-01-24T01:23:23;4.38;;;1.63;;
22648;SDS011;11491;41.942;24.220;2023-01-24T01:25:49;3.88;;;2.00;;
22648;SDS011;11491;41.942;24.220;2023-01-24T01:28:16;2.60;;;1.70;;
22648;SDS011;11491;41.942;24.220;2023-01-24T01:30:48;3.40;;;1.90;;
22648;SDS011;11491;41.942;24.220;2023-01-24T01:33:15;1.98;;;1.35;;
22648;SDS011;11491;41.942;24.220;2023-01-24T01:35:42;4.03;;;2.33;;
22648;SDS011;11491;41.942;24.220;2023-01-24T01:38:08;3.45;;;2.10;;
22648;SDS011;11491;41.942;24.220;2023-01-24T01:40:36;3.17;;;1.90;;
22648;SDS011;11491;41.942;24.220;2023-01-24T01:43:05;3.25;;;2.13;;
22648;SDS011;11491;41.942;24.220;2023-01-24T01:45:38;5.85;;;2.50;;
22648;SDS011;11491;41.942;24.220;2023-01-24T01:48:14;5.53;;;2.00;;
22648;SDS011;11491;41.942;24.220;2023-01-24T01:50:45;5.68;;;2.20;;
22648;SDS011;11491;41.942;24.220;2023-01-24T01:53:16;3.97;;;2.25;;
22648;SDS011;11491;41.942;24.220;2023-01-24T01:55:47;7.20;;;2.85;;
22648;SDS011;11491;41.942;24.220;2023-01-24T01:58:18;5.10;;;2.80;;
22648;SDS011;11491;41.942;24.220;2023-01-24T02:00:46;4.88;;;2.63;;
22648;SDS011;11491;41.942;24.220;2023-01-24T02:03:16;4.85;;;2.08;;
22648;SDS011;11491;41.942;24.220;2023-01-24T02:06:08;6.50;;;2.42;;
22648;SDS011;11491;41.942;24.220;2023-01-24T02:08:45;4.63;;;2.22;;
22648;SDS011;11491;41.942;24.220;2023-01-24T02:11:15;6.00;;;2.47;;
22648;SDS011;11491;41.942;24.220;2023-01-24T02:13:59;6.25;;;2.67;;
22648;SDS011;11491;41.942;24.220;2023-01-24T02:16:44;6.72;;;3.25;;
22648;SDS011;11491;41.942;24.220;2023-01-24T02:19:12;5.18;;;2.20;;
22648;SDS011;11491;41.942;24.220;2023-01-24T02:21:47;4.70;;;2.30;;
22648;SDS011;11491;41.942;24.220;2023-01-24T02:24:23;5.50;;;2.25;;
22648;SDS011;11491;41.942;24.220;2023-01-24T02:26:56;4.18;;;2.50;;
22648;SDS011;11491;41.942;24.220;2023-01-24T02:29:22;4.40;;;1.95;;
22648;SDS011;11491;41.942;24.220;2023-01-24T02:31:53;3.70;;;2.30;;
22648;SDS011;11491;41.942;24.220;2023-01-24T02:34:21;6.85;;;2.30;;
22648;SDS011;11491;41.942;24.220;2023-01-24T02:36:50;3.95;;;2.30;;
22648;SDS011;11491;41.942;24.220;2023-01-24T02:39:21;6.10;;;2.33;;
22648;SDS011;11491;41.942;24.220;2023-01-24T02:41:53;4.35;;;2.15;;
22648;SDS011;11491;41.942;24.220;2023-01-24T02:44:26;4.70;;;2.22;;
22648;SDS011;11491;41.942;24.220;2023-01-24T02:46:58;7.35;;;2.88;;
22648;SDS011;11491;41.942;24.220;2023-01-24T02:49:24;5.25;;;2.70;;
22648;SDS011;11491;41.942;24.220;2023-01-24T02:51:51;6.82;;;2.88;;
22648;SDS011;11491;41.942;24.220;2023-01-24T02:57:03;7.00;;;3.20;;
22648;SDS011;11491;41.942;24.220;2023-01-24T02:59:47;5.80;;;3.00;;
22648;SDS011;11491;41.942;24.220;2023-01-24T03:02:14;8.52;;;3.30;;
22648;SDS011;11491;41.942;24.220;2023-01-24T03:04:41;5.93;;;3.20;;
22648;SDS011;11491;41.942;24.220;2023-01-24T03:07:07;7.47;;;2.70;;
22648;SDS011;11491;41.942;24.220;2023-01-24T03:09:34;5.45;;;3.03;;
22648;SDS011;11491;41.942;24.220;2023-01-24T03:12:05;6.38;;;3.40;;
22648;SDS011;11491;41.942;24.220;2023-01-24T03:14:51;7.88;;;4.00;;
22648;SDS011;11491;41.942;24.220;2023-01-24T03:17:35;5.35;;;3.15;;
22648;SDS011;11491;41.942;24.220;2023-01-24T03:20:19;11.73;;;6.03;;
22648;SDS011;11491;41.942;24.220;2023-01-24T03:23:03;9.52;;;4.13;;
22648;SDS011;11491;41.942;24.220;2023-01-24T03:28:33;6.70;;;3.80;;
22648;SDS011;11491;41.942;24.220;2023-01-24T03:31:17;6.68;;;3.75;;
22648;SDS011;11491;41.942;24.220;2023-01-24T03:34:01;8.02;;;4.60;;
22648;SDS011;11491;41.942;24.220;2023-01-24T03:39:12;5.72;;;3.13;;
22648;SDS011;11491;41.942;24.220;2023-01-24T03:41:56;4.13;;;2.97;;
22648;SDS011;11491;41.942;24.220;2023-01-24T03:44:24;5.35;;;3.13;;
22648;SDS011;11491;41.942;24.220;2023-01-24T03:46:50;6.53;;;3.97;;
22648;SDS011;11491;41.942;24.220;2023-01-24T03:49:17;6.63;;;3.40;;
22648;SDS011;11491;41.942;24.220;2023-01-24T03:51:44;7.20;;;3.25;;
22648;SDS011;11491;41.942;24.220;2023-01-24T03:54:28;7.82;;;3.55;;
22648;SDS011;11491;41.942;24.220;2023-01-24T03:56:55;6.60;;;3.63;;
22648;SDS011;11491;41.942;24.220;2023-01-24T03:59:21;9.05;;;5.20;;
22648;SDS011;11491;41.942;24.220;2023-01-24T04:01:49;14.73;;;8.10;;
22648;SDS011;11491;41.942;24.220;2023-01-24T04:04:16;14.52;;;8.43;;
22648;SDS011;11491;41.942;24.220;2023-01-24T04:06:43;11.25;;;6.82;;
22648;SDS011;11491;41.942;24.220;2023-01-24T04:09:10;12.15;;;6.63;;
22648;SDS011;11491;41.942;24.220;2023-01-24T04:11:36;11.23;;;6.65;;
22648;SDS011;11491;41.942;24.220;2023-01-24T04:14:03;23.13;;;12.98;;
22648;SDS011;11491;41.942;24.220;2023-01-24T04:16:30;22.20;;;11.77;;
22648;SDS011;11491;41.942;24.220;2023-01-24T04:18:58;19.65;;;13.48;;
22648;SDS011;11491;41.942;24.220;2023-01-24T04:21:24;13.85;;;9.73;;
22648;SDS011;11491;41.942;24.220;2023-01-24T04:23:51;9.15;;;5.13;;
22648;SDS011;11491;41.942;24.220;2023-01-24T04:26:18;30.60;;;17.25;;
22648;SDS011;11491;41.942;24.220;2023-01-24T04:28:44;20.15;;;11.25;;
22648;SDS011;11491;41.942;24.220;2023-01-24T04:31:11;13.43;;;4.82;;
22648;SDS011;11491;41.942;24.220;2023-01-24T04:33:38;7.88;;;4.05;;
22648;SDS011;11491;41.942;24.220;2023-01-24T04:36:06;7.55;;;4.78;;
22648;SDS011;11491;41.942;24.220;2023-01-24T04:38:34;10.05;;;5.28;;
22648;SDS011;11491;41.942;24.220;2023-01-24T04:41:01;15.48;;;6.43;;
22648;SDS011;11491;41.942;24.220;2023-01-24T04:43:28;13.57;;;5.45;;
22648;SDS011;11491;41.942;24.220;2023-01-24T04:45:55;9.02;;;4.45;;
22648;SDS011;11491;41.942;24.220;2023-01-24T04:48:22;10.70;;;4.78;;
22648;SDS011;11491;41.942;24.220;2023-01-24T04:50:49;10.98;;;5.65;;
22648;SDS011;11491;41.942;24.220;2023-01-24T04:53:17;21.70;;;5.60;;
22648;SDS011;11491;41.942;24.220;2023-01-24T04:55:44;13.15;;;4.90;;
22648;SDS011;11491;41.942;24.220;2023-01-24T04:58:11;18.08;;;4.65;;
22648;SDS011;11491;41.942;24.220;2023-01-24T05:00:38;9.80;;;6.00;;
22648;SDS011;11491;41.942;24.220;2023-01-24T05:03:05;11.43;;;6.68;;
22648;SDS011;11491;41.942;24.220;2023-01-24T05:05:32;15.55;;;5.82;;
22648;SDS011;11491;41.942;24.220;2023-01-24T05:07:58;23.67;;;9.65;;
22648;SDS011;11491;41.942;24.220;2023-01-24T05:10:26;19.63;;;10.25;;
22648;SDS011;11491;41.942;24.220;2023-01-24T05:12:53;21.17;;;13.43;;
22648;SDS011;11491;41.942;24.220;2023-01-24T05:15:20;32.50;;;19.52;;
22648;SDS011;11491;41.942;24.220;2023-01-24T05:17:48;18.27;;;10.63;;
22648;SDS011;11491;41.942;24.220;2023-01-24T05:20:15;38.40;;;19.55;;
22648;SDS011;11491;41.942;24.220;2023-01-24T05:22:42;39.70;;;15.35;;
22648;SDS011;11491;41.942;24.220;2023-01-24T05:25:11;81.63;;;51.53;;
22648;SDS011;11491;41.942;24.220;2023-01-24T05:27:41;42.47;;;24.23;;
22648;SDS011;11491;41.942;24.220;2023-01-24T05:30:08;73.50;;;44.70;;
22648;SDS011;11491;41.942;24.220;2023-01-24T05:32:36;40.10;;;22.73;;
22648;SDS011;11491;41.942;24.220;2023-01-24T05:35:03;20.50;;;10.88;;
22648;SDS011;11491;41.942;24.220;2023-01-24T05:37:31;31.25;;;18.02;;
22648;SDS011;11491;41.942;24.220;2023-01-24T05:39:57;32.40;;;15.88;;
22648;SDS011;11491;41.942;24.220;2023-01-24T05:42:25;31.05;;;17.48;;
22648;SDS011;11491;41.942;24.220;2023-01-24T05:44:53;33.20;;;19.73;;
22648;SDS011;11491;41.942;24.220;2023-01-24T05:47:19;45.03;;;23.73;;
22648;SDS011;11491;41.942;24.220;2023-01-24T05:49:46;36.92;;;19.17;;
22648;SDS011;11491;41.942;24.220;2023-01-24T05:52:13;31.60;;;17.70;;
22648;SDS011;11491;41.942;24.220;2023-01-24T05:54:43;22.25;;;12.23;;
22648;SDS011;11491;41.942;24.220;2023-01-24T05:57:10;84.18;;;40.00;;
22648;SDS011;11491;41.942;24.220;2023-01-24T05:59:37;47.92;;;28.48;;
22648;SDS011;11491;41.942;24.220;2023-01-24T06:02:05;32.15;;;22.08;;
22648;SDS011;11491;41.942;24.220;2023-01-24T06:04:32;24.98;;;15.48;;
22648;SDS011;11491;41.942;24.220;2023-01-24T06:06:58;30.00;;;18.13;;
22648;SDS011;11491;41.942;24.220;2023-01-24T06:09:25;28.67;;;19.42;;
22648;SDS011;11491;41.942;24.220;2023-01-24T06:11:52;28.80;;;17.27;;
22648;SDS011;11491;41.942;24.220;2023-01-24T06:14:19;31.98;;;21.52;;
22648;SDS011;11491;41.942;24.220;2023-01-24T06:16:46;56.25;;;35.20;;
22648;SDS011;11491;41.942;24.220;2023-01-24T06:19:15;82.38;;;45.38;;
22648;SDS011;11491;41.942;24.220;2023-01-24T06:21:43;50.97;;;33.42;;
22648;SDS011;11491;41.942;24.220;2023-01-24T06:24:14;31.30;;;22.05;;
22648;SDS011;11491;41.942;24.220;2023-01-24T06:26:44;29.38;;;18.02;;
22648;SDS011;11491;41.942;24.220;2023-01-24T06:29:12;37.05;;;21.17;;
22648;SDS011;11491;41.942;24.220;2023-01-24T06:31:41;14.93;;;11.02;;
22648;SDS011;11491;41.942;24.220;2023-01-24T06:34:21;23.10;;;17.40;;
22648;SDS011;11491;41.942;24.220;2023-01-24T06:37:03;33.00;;;23.80;;
22648;SDS011;11491;41.942;24.220;2023-01-24T06:39:39;29.60;;;17.50;;
22648;SDS011;11491;41.942;24.220;2023-01-24T06:42:14;39.10;;;25.95;;
22648;SDS011;11491;41.942;24.220;2023-01-24T06:44:42;34.13;;;20.60;;
22648;SDS011;11491;41.942;24.220;2023-01-24T06:47:08;34.10;;;18.88;;
22648;SDS011;11491;41.942;24.220;2023-01-24T06:49:38;35.70;;;18.92;;
22648;SDS011;11491;41.942;24.220;2023-01-24T06:52:05;54.25;;;33.30;;
22648;SDS011;11491;41.942;24.220;2023-01-24T06:54:32;25.48;;;16.30;;
22648;SDS011;11491;41.942;24.220;2023-01-24T06:57:00;31.30;;;20.92;;
22648;SDS011;11491;41.942;24.220;2023-01-24T06:59:29;49.58;;;27.98;;
22648;SDS011;11491;41.942;24.220;2023-01-24T07:01:56;71.85;;;42.13;;
22648;SDS011;11491;41.942;24.220;2023-01-24T07:04:23;74.38;;;42.47;;
22648;SDS011;11491;41.942;24.220;2023-01-24T07:06:51;55.42;;;34.40;;
22648;SDS011;11491;41.942;24.220;2023-01-24T07:09:18;30.08;;;22.05;;
22648;SDS011;11491;41.942;24.220;2023-01-24T07:11:45;56.17;;;37.53;;
22648;SDS011;11491;41.942;24.220;2023-01-24T07:14:14;42.83;;;28.50;;
22648;SDS011;11491;41.942;24.220;2023-01-24T07:16:41;27.40;;;16.90;;
22648;SDS011;11491;41.942;24.220;2023-01-24T07:19:08;23.27;;;16.60;;
22648;SDS011;11491;41.942;24.220;2023-01-24T07:21:41;31.83;;;22.13;;
22648;SDS011;11491;41.942;24.220;2023-01-24T07:24:12;22.85;;;16.05;;
22648;SDS011;11491;41.942;24.220;2023-01-24T07:26:40;37.65;;;25.10;;
22648;SDS011;11491;41.942;24.220;2023-01-24T07:29:07;24.80;;;15.70;;
22648;SDS011;11491;41.942;24.220;2023-01-24T07:31:34;26.42;;;17.27;;
22648;SDS011;11491;41.942;24.220;2023-01-24T07:34:01;24.48;;;14.90;;
22648;SDS011;11491;41.942;24.220;2023-01-24T07:36:28;89.78;;;42.45;;
22648;SDS011;11491;41.942;24.220;2023-01-24T07:38:54;37.80;;;25.35;;
22648;SDS011;11491;41.942;24.220;2023-01-24T07:41:23;38.05;;;26.52;;
22648;SDS011;11491;41.942;24.220;2023-01-24T07:43:50;39.03;;;25.80;;
22648;SDS011;11491;41.942;24.220;2023-01-24T07:46:16;43.28;;;26.30;;
22648;SDS011;11491;41.942;24.220;2023-01-24T07:48:44;36.25;;;24.13;;
22648;SDS011;11491;41.942;24.220;2023-01-24T07:51:11;57.13;;;34.92;;
22648;SDS011;11491;41.942;24.220;2023-01-24T07:53:37;32.33;;;18.40;;
22648;SDS011;11491;41.942;24.220;2023-01-24T07:56:05;19.48;;;15.07;;
22648;SDS011;11491;41.942;24.220;2023-01-24T07:58:33;29.15;;;19.85;;
22648;SDS011;11491;41.942;24.220;2023-01-24T08:01:00;23.60;;;16.25;;
22648;SDS011;11491;41.942;24.220;2023-01-24T08:03:29;28.30;;;18.83;;
22648;SDS011;11491;41.942;24.220;2023-01-24T08:05:56;24.40;;;17.83;;
22648;SDS011;11491;41.942;24.220;2023-01-24T08:08:23;28.35;;;21.70;;
22648;SDS011;11491;41.942;24.220;2023-01-24T08:10:49;17.80;;;13.60;;
22648;SDS011;11491;41.942;24.220;2023-01-24T08:13:16;21.02;;;12.88;;
22648;SDS011;11491;41.942;24.220;2023-01-24T08:15:44;45.47;;;26.30;;
22648;SDS011;11491;41.942;24.220;2023-01-24T08:18:11;44.90;;;25.27;;
22648;SDS011;11491;41.942;24.220;2023-01-24T08:20:38;13.05;;;8.45;;
22648;SDS011;11491;41.942;24.220;2023-01-24T08:23:05;37.90;;;18.90;;
22648;SDS011;11491;41.942;24.220;2023-01-24T08:25:31;17.00;;;10.30;;
22648;SDS011;11491;41.942;24.220;2023-01-24T08:27:59;9.50;;;6.90;;
22648;SDS011;11491;41.942;24.220;2023-01-24T08:30:26;17.85;;;11.23;;
22648;SDS011;11491;41.942;24.220;2023-01-24T08:33:01;12.90;;;8.27;;
22648;SDS011;11491;41.942;24.220;2023-01-24T08:35:28;13.70;;;8.73;;
22648;SDS011;11491;41.942;24.220;2023-01-24T08:37:56;14.18;;;9.38;;
22648;SDS011;11491;41.942;24.220;2023-01-24T08:40:23;11.88;;;7.68;;
22648;SDS011;11491;41.942;24.220;2023-01-24T08:42:50;21.42;;;13.75;;
22648;SDS011;11491;41.942;24.220;2023-01-24T08:45:17;25.23;;;13.95;;
22648;SDS011;11491;41.942;24.220;2023-01-24T08:47:43;22.55;;;18.48;;
22648;SDS011;11491;41.942;24.220;2023-01-24T08:50:12;20.48;;;11.57;;
22648;SDS011;11491;41.942;24.220;2023-01-24T08:52:41;19.17;;;13.15;;
22648;SDS011;11491;41.942;24.220;2023-01-24T08:55:08;11.85;;;9.43;;
22648;SDS011;11491;41.942;24.220;2023-01-24T08:57:35;11.85;;;8.70;;
22648;SDS011;11491;41.942;24.220;2023-01-24T09:00:03;9.20;;;6.90;;
22648;SDS011;11491;41.942;24.220;2023-01-24T09:02:31;29.75;;;18.88;;
22648;SDS011;11491;41.942;24.220;2023-01-24T09:05:05;42.80;;;22.60;;
22648;SDS011;11491;41.942;24.220;2023-01-24T09:07:34;16.80;;;11.02;;
22648;SDS011;11491;41.942;24.220;2023-01-24T09:10:05;10.85;;;7.32;;
22648;SDS011;11491;41.942;24.220;2023-01-24T09:12:33;41.10;;;19.60;;
22648;SDS011;11491;41.942;24.220;2023-01-24T09:14:59;9.68;;;6.38;;
22648;SDS011;11491;41.942;24.220;2023-01-24T09:17:26;82.40;;;31.98;;
22648;SDS011;11491;41.942;24.220;2023-01-24T09:19:53;73.63;;;29.00;;
22648;SDS011;11491;41.942;24.220;2023-01-24T09:22:19;34.95;;;16.95;;
22648;SDS011;11491;41.942;24.220;2023-01-24T09:24:47;16.75;;;9.63;;
22648;SDS011;11491;41.942;24.220;2023-01-24T09:27:14;8.13;;;5.90;;
22648;SDS011;11491;41.942;24.220;2023-01-24T09:29:41;4.50;;;3.70;;
22648;SDS011;11491;41.942;24.220;2023-01-24T09:32:08;5.53;;;4.53;;
22648;SDS011;11491;41.942;24.220;2023-01-24T09:34:34;12.82;;;10.05;;
22648;SDS011;11491;41.942;24.220;2023-01-24T09:37:01;14.90;;;11.48;;
22648;SDS011;11491;41.942;24.220;2023-01-24T09:39:28;15.07;;;12.00;;
22648;SDS011;11491;41.942;24.220;2023-01-24T09:41:58;11.50;;;7.97;;
22648;SDS011;11491;41.942;24.220;2023-01-24T09:44:33;12.35;;;8.50;;
22648;SDS011;11491;41.942;24.220;2023-01-24T09:47:09;12.07;;;7.32;;
22648;SDS011;11491;41.942;24.220;2023-01-24T09:49:45;13.90;;;10.38;;
22648;SDS011;11491;41.942;24.220;2023-01-24T09:52:18;11.68;;;8.80;;
22648;SDS011;11491;41.942;24.220;2023-01-24T09:54:56;7.47;;;5.75;;
22648;SDS011;11491;41.942;24.220;2023-01-24T09:57:29;13.68;;;7.88;;
22648;SDS011;11491;41.942;24.220;2023-01-24T10:00:02;10.93;;;7.85;;
22648;SDS011;11491;41.942;24.220;2023-01-24T10:02:30;9.55;;;6.72;;
22648;SDS011;11491;41.942;24.220;2023-01-24T10:04:57;9.02;;;6.43;;
22648;SDS011;11491;41.942;24.220;2023-01-24T10:07:28;8.55;;;5.85;;
22648;SDS011;11491;41.942;24.220;2023-01-24T10:10:20;20.80;;;14.00;;
22648;SDS011;11491;41.942;24.220;2023-01-24T10:13:00;27.98;;;14.18;;
22648;SDS011;11491;41.942;24.220;2023-01-24T10:15:35;20.33;;;12.63;;
22648;SDS011;11491;41.942;24.220;2023-01-24T10:18:17;165.20;;;61.67;;
22648;SDS011;11491;41.942;24.220;2023-01-24T10:20:58;85.53;;;39.70;;
22648;SDS011;11491;41.942;24.220;2023-01-24T10:23:32;27.92;;;17.98;;
22648;SDS011;11491;41.942;24.220;2023-01-24T10:26:05;82.78;;;39.95;;
22648;SDS011;11491;41.942;24.220;2023-01-24T10:28:45;17.52;;;11.98;;
22648;SDS011;11491;41.942;24.220;2023-01-24T10:31:16;25.88;;;16.58;;
22648;SDS011;11491;41.942;24.220;2023-01-24T10:33:50;25.27;;;17.58;;
22648;SDS011;11491;41.942;24.220;2023-01-24T10:36:24;15.23;;;10.88;;
22648;SDS011;11491;41.942;24.220;2023-01-24T10:38:56;50.38;;;29.08;;
22648;SDS011;11491;41.942;24.220;2023-01-24T10:41:23;48.42;;;30.75;;
22648;SDS011;11491;41.942;24.220;2023-01-24T10:43:58;25.80;;;17.13;;
22648;SDS011;11491;41.942;24.220;2023-01-24T10:49:51;36.90;;;25.10;;
22648;SDS011;11491;41.942;24.220;2023-01-24T10:52:23;37.25;;;22.88;;
22648;SDS011;11491;41.942;24.220;2023-01-24T10:54:50;36.78;;;21.13;;
22648;SDS011;11491;41.942;24.220;2023-01-24T11:00:27;37.20;;;20.88;;
22648;SDS011;11491;41.942;24.220;2023-01-24T11:02:58;39.63;;;24.40;;
22648;SDS011;11491;41.942;24.220;2023-01-24T11:05:34;33.67;;;20.20;;
22648;SDS011;11491;41.942;24.220;2023-01-24T11:08:04;45.67;;;26.95;;
22648;SDS011;11491;41.942;24.220;2023-01-24T11:10:34;31.90;;;19.17;;
22648;SDS011;11491;41.942;24.220;2023-01-24T11:13:05;47.20;;;31.95;;
22648;SDS011;11491;41.942;24.220;2023-01-24T11:15:53;37.67;;;22.73;;
22648;SDS011;11491;41.942;24.220;2023-01-24T11:18:26;28.70;;;19.10;;
22648;SDS011;11491;41.942;24.220;2023-01-24T11:21:10;30.10;;;18.02;;
22648;SDS011;11491;41.942;24.220;2023-01-24T11:23:38;23.23;;;12.98;;
22648;SDS011;11491;41.942;24.220;2023-01-24T11:26:06;25.52;;;15.73;;
22648;SDS011;11491;41.942;24.220;2023-01-24T11:28:55;24.40;;;13.77;;
22648;SDS011;11491;41.942;24.220;2023-01-24T11:31:27;22.92;;;13.18;;
22648;SDS011;11491;41.942;24.220;2023-01-24T11:34:15;23.90;;;14.18;;
22648;SDS011;11491;41.942;24.220;2023-01-24T11:37:29;26.50;;;14.73;;
22648;SDS011;11491;41.942;24.220;2023-01-24T11:40:14;21.33;;;13.77;;
22648;SDS011;11491;41.942;24.220;2023-01-24T11:42:51;23.13;;;13.85;;
22648;SDS011;11491;41.942;24.220;2023-01-24T11:45:38;31.48;;;19.23;;
22648;SDS011;11491;41.942;24.220;2023-01-24T11:48:19;35.17;;;20.60;;
22648;SDS011;11491;41.942;24.220;2023-01-24T11:50:51;32.15;;;18.85;;
22648;SDS011;11491;41.942;24.220;2023-01-24T11:53:34;58.05;;;33.05;;
22648;SDS011;11491;41.942;24.220;2023-01-24T11:56:14;50.25;;;27.92;;
22648;SDS011;11491;41.942;24.220;2023-01-24T11:59:02;38.45;;;21.77;;
22648;SDS011;11491;41.942;24.220;2023-01-24T12:01:48;44.17;;;29.52;;
22648;SDS011;11491;41.942;24.220;2023-01-24T12:04:38;35.08;;;22.42;;
22648;SDS011;11491;41.942;24.220;2023-01-24T12:07:15;25.80;;;16.48;;
22648;SDS011;11491;41.942;24.220;2023-01-24T12:09:51;35.67;;;23.67;;
22648;SDS011;11491;41.942;24.220;2023-01-24T12:12:27;27.55;;;18.00;;
22648;SDS011;11491;41.942;24.220;2023-01-24T12:15:10;28.80;;;19.75;;
22648;SDS011;11491;41.942;24.220;2023-01-24T12:17:53;30.23;;;19.60;;
22648;SDS011;11491;41.942;24.220;2023-01-24T12:20:41;37.75;;;23.05;;
22648;SDS011;11491;41.942;24.220;2023-01-24T12:23:24;35.47;;;22.40;;
22648;SDS011;11491;41.942;24.220;2023-01-24T12:25:55;40.85;;;24.48;;
22648;SDS011;11491;41.942;24.220;2023-01-24T12:28:27;34.53;;;21.20;;
22648;SDS011;11491;41.942;24.220;2023-01-24T12:31:00;46.47;;;30.17;;
22648;SDS011;11491;41.942;24.220;2023-01-24T12:33:33;33.40;;;20.55;;
22648;SDS011;11491;41.942;24.220;2023-01-24T12:36:06;33.92;;;18.73;;
22648;SDS011;11491;41.942;24.220;2023-01-24T12:38:38;28.40;;;17.45;;
22648;SDS011;11491;41.942;24.220;2023-01-24T12:41:12;24.50;;;14.15;;
22648;SDS011;11491;41.942;24.220;2023-01-24T12:43:48;32.10;;;17.15;;
22648;SDS011;11491;41.942;24.220;2023-01-24T12:46:25;38.58;;;22.65;;
22648;SDS011;11491;41.942;24.220;2023-01-24T12:48:56;30.20;;;17.23;;
22648;SDS011;11491;41.942;24.220;2023-01-24T12:51:35;29.42;;;16.45;;
22648;SDS011;11491;41.942;24.220;2023-01-24T12:54:08;29.73;;;17.55;;
22648;SDS011;11491;41.942;24.220;2023-01-24T12:56:42;36.80;;;22.40;;
22648;SDS011;11491;41.942;24.220;2023-01-24T12:59:13;54.05;;;28.75;;
22648;SDS011;11491;41.942;24.220;2023-01-24T13:04:56;35.60;;;19.20;;
22648;SDS011;11491;41.942;24.220;2023-01-24T13:07:35;32.03;;;19.80;;
22648;SDS011;11491;41.942;24.220;2023-01-24T13:10:13;38.85;;;27.58;;
22648;SDS011;11491;41.942;24.220;2023-01-24T13:12:47;27.67;;;16.63;;
22648;SDS011;11491;41.942;24.220;2023-01-24T13:15:16;27.95;;;16.30;;
22648;SDS011;11491;41.942;24.220;2023-01-24T13:20:51;21.23;;;12.70;;
22648;SDS011;11491;41.942;24.220;2023-01-24T13:23:30;23.27;;;14.38;;
22648;SDS011;11491;41.942;24.220;2023-01-24T13:26:14;36.35;;;22.05;;
22648;SDS011;11491;41.942;24.220;2023-01-24T13:28:55;22.05;;;11.32;;
22648;SDS011;11491;41.942;24.220;2023-01-24T13:31:34;27.48;;;18.75;;
22648;SDS011;11491;41.942;24.220;2023-01-24T13:34:13;21.65;;;12.82;;
22648;SDS011;11491;41.942;24.220;2023-01-24T13:36:45;29.77;;;18.33;;
22648;SDS011;11491;41.942;24.220;2023-01-24T13:39:26;40.97;;;20.92;;
22648;SDS011;11491;41.942;24.220;2023-01-24T13:42:00;26.30;;;14.65;;
22648;SDS011;11491;41.942;24.220;2023-01-24T13:44:30;26.98;;;13.73;;
22648;SDS011;11491;41.942;24.220;2023-01-24T13:47:08;42.35;;;21.20;;
22648;SDS011;11491;41.942;24.220;2023-01-24T13:52:43;44.10;;;21.48;;
22648;SDS011;11491;41.942;24.220;2023-01-24T13:58:24;40.55;;;23.30;;
22648;SDS011;11491;41.942;24.220;2023-01-24T14:00:52;44.28;;;23.52;;
22648;SDS011;11491;41.942;24.220;2023-01-24T14:03:22;41.72;;;26.38;;
22648;SDS011;11491;41.942;24.220;2023-01-24T14:05:53;46.67;;;29.27;;
22648;SDS011;11491;41.942;24.220;2023-01-24T14:08:36;40.08;;;26.95;;
22648;SDS011;11491;41.942;24.220;2023-01-24T14:14:00;37.30;;;16.23;;
22648;SDS011;11491;41.942;24.220;2023-01-24T14:17:03;41.60;;;18.05;;
22648;SDS011;11491;41.942;24.220;2023-01-24T14:19:47;40.58;;;19.15;;
22648;SDS011;11491;41.942;24.220;2023-01-24T14:22:17;47.28;;;24.92;;
22648;SDS011;11491;41.942;24.220;2023-01-24T14:24:54;54.45;;;28.42;;
22648;SDS011;11491;41.942;24.220;2023-01-24T14:27:32;62.45;;;31.33;;
22648;SDS011;11491;41.942;24.220;2023-01-24T14:33:13;58.70;;;27.70;;
22648;SDS011;11491;41.942;24.220;2023-01-24T14:35:51;83.88;;;50.60;;
22648;SDS011;11491;41.942;24.220;2023-01-24T14:38:24;55.53;;;30.17;;
22648;SDS011;11491;41.942;24.220;2023-01-24T14:40:51;63.72;;;35.60;;
22648;SDS011;11491;41.942;24.220;2023-01-24T14:43:19;76.57;;;37.38;;
22648;SDS011;11491;41.942;24.220;2023-01-24T14:45:50;45.20;;;24.10;;
22648;SDS011;11491;41.942;24.220;2023-01-24T14:48:19;38.75;;;19.25;;
22648;SDS011;11491;41.942;24.220;2023-01-24T14:50:55;52.58;;;25.10;;
22648;SDS011;11491;41.942;24.220;2023-01-24T14:53:24;50.47;;;27.15;;
22648;SDS011;11491;41.942;24.220;2023-01-24T14:55:52;56.75;;;32.15;;
22648;SDS011;11491;41.942;24.220;2023-01-24T14:58:21;55.25;;;36.15;;
22648;SDS011;11491;41.942;24.220;2023-01-24T15:00:51;43.08;;;28.38;;
22648;SDS011;11491;41.942;24.220;2023-01-24T15:03:21;31.20;;;19.00;;
22648;SDS011;11491;41.942;24.220;2023-01-24T15:05:50;54.60;;;30.73;;
22648;SDS011;11491;41.942;24.220;2023-01-24T15:08:19;87.60;;;43.15;;
22648;SDS011;11491;41.942;24.220;2023-01-24T15:10:51;71.00;;;40.10;;
22648;SDS011;11491;41.942;24.220;2023-01-24T15:13:23;51.42;;;31.33;;